Главная страница
METAR-TAF:

METAR-TAF

Аэропорты :

Иркутск, Россия

широта: 52-16N, долгота: 104-19E, высота над уровнем моря: 513 м

Текущие метеонаблюдения

Эта сводка был подготовлена 17 минут назад, в 21:30 UTC
Ветер 6 Узел от южный
Температура 6°C
Влажность 65%
Давление 1016 hPa
Видимость 10 км и более
Нет облачности ниже 1500 м, и нет кучево-дождевой облачности

METAR: UIII 252130Z 17003MPS CAVOK 06/00 Q1016 R12/CLRD60 NOSIG RMK QFE720/0960

Время: 05:47 (21:47 UTC)

Прогноз

Эта сводка был подготовлена 1 час и 47 минут назад, в 20:00 UTC
Прогноз действительный с 25-го 21 UTC до 26-го 21 UTC
Ветер 6 Узел от юго-юго-восточный
Видимость 10 км и более
Нет облачности ниже 1500 м, и нет кучево-дождевой облачности

TAF: UIII 252000Z 2521/2621 16003MPS CAVOK

Метеонаблюдения и прогнозы для более 4000 аэропортов (сводки METAR и TAF).

Имеющиеся станции представлены на карте желтыми и красными точками.

Чтобы увидеть название станции, наведите на нее мышь.

Затем щелкните, чтобы увидеть метеонаблюдения и метеопрогнозы.

Управление картой: чтобы увеличить масштаб, щелкните зеленые кнопки с черным крестиком; чтобы уменьшить масштаб, щелкните зеленую кнопку с тире; для просмотра соседних карт щелкайте зеленые стрелки.


METAR-TAF: